sensor_id;sensor_type;location;lat;lon;timestamp;pressure;altitude;pressure_sealevel;temperature;humidity
11114;BME280;5610;52.154;9.198;2022-07-29T00:00:56;100898.84;;;19.74;55.07
11114;BME280;5610;52.154;9.198;2022-07-29T00:03:43;100895.88;;;19.67;54.89
11114;BME280;5610;52.154;9.198;2022-07-29T00:06:28;100900.28;;;19.59;55.19
11114;BME280;5610;52.154;9.198;2022-07-29T00:09:13;100888.47;;;19.50;55.65
11114;BME280;5610;52.154;9.198;2022-07-29T00:12:00;100891.88;;;19.52;55.31
11114;BME280;5610;52.154;9.198;2022-07-29T00:14:46;100884.81;;;19.41;55.88
11114;BME280;5610;52.154;9.198;2022-07-29T00:17:31;100886.09;;;19.37;56.23
11114;BME280;5610;52.154;9.198;2022-07-29T00:20:19;100883.97;;;19.41;55.95
11114;BME280;5610;52.154;9.198;2022-07-29T00:23:04;100881.16;;;19.33;56.48
11114;BME280;5610;52.154;9.198;2022-07-29T00:25:50;100881.84;;;19.35;56.54
11114;BME280;5610;52.154;9.198;2022-07-29T00:28:35;100868.34;;;19.35;56.57
11114;BME280;5610;52.154;9.198;2022-07-29T00:31:21;100869.59;;;19.31;56.22
11114;BME280;5610;52.154;9.198;2022-07-29T00:34:06;100863.22;;;19.22;56.77
11114;BME280;5610;52.154;9.198;2022-07-29T00:37:13;100874.03;;;19.22;56.74
11114;BME280;5610;52.154;9.198;2022-07-29T00:39:58;100868.63;;;19.22;57.09
11114;BME280;5610;52.154;9.198;2022-07-29T00:42:44;100864.09;;;19.13;57.01
11114;BME280;5610;52.154;9.198;2022-07-29T00:45:29;100863.81;;;19.16;57.06
11114;BME280;5610;52.154;9.198;2022-07-29T00:48:15;100857.56;;;19.06;57.11
11114;BME280;5610;52.154;9.198;2022-07-29T00:51:02;100856.00;;;19.13;57.86
11114;BME280;5610;52.154;9.198;2022-07-29T00:53:49;100857.72;;;19.04;57.74
11114;BME280;5610;52.154;9.198;2022-07-29T00:56:35;100847.75;;;19.14;57.44
11114;BME280;5610;52.154;9.198;2022-07-29T00:59:20;100845.94;;;19.05;57.81
11114;BME280;5610;52.154;9.198;2022-07-29T01:02:06;100848.16;;;19.10;57.83
11114;BME280;5610;52.154;9.198;2022-07-29T01:04:51;100838.94;;;19.12;57.72
11114;BME280;5610;52.154;9.198;2022-07-29T01:07:37;100835.81;;;19.07;58.18
11114;BME280;5610;52.154;9.198;2022-07-29T01:10:26;100836.81;;;19.06;58.02
11114;BME280;5610;52.154;9.198;2022-07-29T01:13:11;100831.97;;;19.10;58.24
11114;BME280;5610;52.154;9.198;2022-07-29T01:16:01;100831.56;;;19.05;58.66
11114;BME280;5610;52.154;9.198;2022-07-29T01:18:52;100827.03;;;19.05;58.44
11114;BME280;5610;52.154;9.198;2022-07-29T01:21:50;100818.91;;;19.05;58.88
11114;BME280;5610;52.154;9.198;2022-07-29T01:24:52;100818.50;;;19.00;59.17
11114;BME280;5610;52.154;9.198;2022-07-29T01:27:54;100810.41;;;18.90;59.18
11114;BME280;5610;52.154;9.198;2022-07-29T01:30:45;100811.38;;;18.99;59.28
11114;BME280;5610;52.154;9.198;2022-07-29T01:33:41;100809.97;;;18.95;59.46
11114;BME280;5610;52.154;9.198;2022-07-29T01:36:37;100801.00;;;18.94;59.54
11114;BME280;5610;52.154;9.198;2022-07-29T01:39:27;100812.53;;;18.97;59.16
11114;BME280;5610;52.154;9.198;2022-07-29T01:42:19;100809.53;;;19.00;59.07
11114;BME280;5610;52.154;9.198;2022-07-29T01:45:10;100805.72;;;18.92;58.86
11114;BME280;5610;52.154;9.198;2022-07-29T01:48:00;100815.50;;;18.93;58.96
11114;BME280;5610;52.154;9.198;2022-07-29T01:50:50;100814.25;;;18.98;58.81
11114;BME280;5610;52.154;9.198;2022-07-29T01:53:41;100805.13;;;18.99;58.81
11114;BME280;5610;52.154;9.198;2022-07-29T01:56:29;100803.72;;;18.94;58.82
11114;BME280;5610;52.154;9.198;2022-07-29T01:59:18;100796.59;;;18.93;59.03
11114;BME280;5610;52.154;9.198;2022-07-29T02:02:04;100795.50;;;18.96;59.35
11114;BME280;5610;52.154;9.198;2022-07-29T02:04:54;100788.25;;;18.97;59.25
11114;BME280;5610;52.154;9.198;2022-07-29T02:07:42;100790.31;;;19.03;58.89
11114;BME280;5610;52.154;9.198;2022-07-29T02:10:31;100783.69;;;18.97;59.19
11114;BME280;5610;52.154;9.198;2022-07-29T02:13:17;100800.47;;;18.91;58.98
11114;BME280;5610;52.154;9.198;2022-07-29T02:16:07;100800.00;;;18.96;59.15
11114;BME280;5610;52.154;9.198;2022-07-29T02:18:56;100793.75;;;18.95;59.38
11114;BME280;5610;52.154;9.198;2022-07-29T02:21:44;100796.03;;;19.00;59.21
11114;BME280;5610;52.154;9.198;2022-07-29T02:24:30;100794.75;;;18.94;59.49
11114;BME280;5610;52.154;9.198;2022-07-29T02:27:20;100783.13;;;18.84;59.84
11114;BME280;5610;52.154;9.198;2022-07-29T02:30:08;100785.56;;;18.77;60.21
11114;BME280;5610;52.154;9.198;2022-07-29T02:32:55;100783.84;;;18.76;60.42
11114;BME280;5610;52.154;9.198;2022-07-29T02:35:43;100781.00;;;18.78;60.55
11114;BME280;5610;52.154;9.198;2022-07-29T02:38:31;100779.03;;;18.70;60.66
11114;BME280;5610;52.154;9.198;2022-07-29T02:41:40;100780.03;;;18.69;60.71
11114;BME280;5610;52.154;9.198;2022-07-29T02:44:26;100779.56;;;18.64;60.66
11114;BME280;5610;52.154;9.198;2022-07-29T02:47:17;100769.78;;;18.63;60.82
11114;BME280;5610;52.154;9.198;2022-07-29T02:50:06;100761.53;;;18.64;60.66
11114;BME280;5610;52.154;9.198;2022-07-29T02:52:57;100770.09;;;18.70;60.46
11114;BME280;5610;52.154;9.198;2022-07-29T02:55:47;100765.69;;;18.69;60.47
11114;BME280;5610;52.154;9.198;2022-07-29T02:58:37;100772.94;;;18.68;60.63
11114;BME280;5610;52.154;9.198;2022-07-29T03:01:25;100767.53;;;18.68;60.46
11114;BME280;5610;52.154;9.198;2022-07-29T03:04:15;100767.22;;;18.71;60.57
11114;BME280;5610;52.154;9.198;2022-07-29T03:07:04;100763.84;;;18.69;60.36
11114;BME280;5610;52.154;9.198;2022-07-29T03:09:50;100769.25;;;18.69;60.21
11114;BME280;5610;52.154;9.198;2022-07-29T03:12:38;100768.38;;;18.69;60.20
11114;BME280;5610;52.154;9.198;2022-07-29T03:15:24;100772.78;;;18.70;59.93
11114;BME280;5610;52.154;9.198;2022-07-29T03:18:10;100770.03;;;18.60;60.18
11114;BME280;5610;52.154;9.198;2022-07-29T03:20:56;100766.63;;;18.58;60.27
11114;BME280;5610;52.154;9.198;2022-07-29T03:23:43;100768.78;;;18.54;60.17
11114;BME280;5610;52.154;9.198;2022-07-29T03:26:29;100776.00;;;18.44;60.93
11114;BME280;5610;52.154;9.198;2022-07-29T03:29:16;100782.81;;;18.38;60.68
11114;BME280;5610;52.154;9.198;2022-07-29T03:32:03;100762.09;;;18.39;61.35
11114;BME280;5610;52.154;9.198;2022-07-29T03:34:49;100761.41;;;18.47;60.64
11114;BME280;5610;52.154;9.198;2022-07-29T03:37:34;100762.66;;;18.43;60.75
11114;BME280;5610;52.154;9.198;2022-07-29T03:40:22;100755.72;;;18.50;60.71
11114;BME280;5610;52.154;9.198;2022-07-29T03:43:10;100750.88;;;18.53;60.84
11114;BME280;5610;52.154;9.198;2022-07-29T03:45:59;100750.88;;;18.53;60.35
11114;BME280;5610;52.154;9.198;2022-07-29T03:48:48;100752.44;;;18.56;60.61
11114;BME280;5610;52.154;9.198;2022-07-29T03:51:35;100753.44;;;18.55;60.49
11114;BME280;5610;52.154;9.198;2022-07-29T03:54:20;100760.13;;;18.51;60.41
11114;BME280;5610;52.154;9.198;2022-07-29T03:57:07;100758.41;;;18.50;60.40
11114;BME280;5610;52.154;9.198;2022-07-29T03:59:56;100764.97;;;18.47;60.44
11114;BME280;5610;52.154;9.198;2022-07-29T04:02:43;100763.66;;;18.51;60.25
11114;BME280;5610;52.154;9.198;2022-07-29T04:05:32;100763.50;;;18.53;60.20
11114;BME280;5610;52.154;9.198;2022-07-29T04:08:17;100761.97;;;18.50;60.17
11114;BME280;5610;52.154;9.198;2022-07-29T04:11:03;100760.81;;;18.53;60.09
11114;BME280;5610;52.154;9.198;2022-07-29T04:13:49;100755.28;;;18.54;60.63
11114;BME280;5610;52.154;9.198;2022-07-29T04:16:34;100765.22;;;18.63;60.72
11114;BME280;5610;52.154;9.198;2022-07-29T04:19:21;100767.06;;;18.63;60.53
11114;BME280;5610;52.154;9.198;2022-07-29T04:22:06;100762.53;;;18.63;60.67
11114;BME280;5610;52.154;9.198;2022-07-29T04:24:51;100765.53;;;18.70;60.93
11114;BME280;5610;52.154;9.198;2022-07-29T04:27:37;100772.78;;;18.70;60.75
11114;BME280;5610;52.154;9.198;2022-07-29T04:30:42;100772.91;;;18.78;60.91
11114;BME280;5610;52.154;9.198;2022-07-29T04:33:27;100778.16;;;18.79;60.51
11114;BME280;5610;52.154;9.198;2022-07-29T04:36:14;100756.13;;;18.84;60.64
11114;BME280;5610;52.154;9.198;2022-07-29T04:39:00;100758.09;;;18.91;64.31
11114;BME280;5610;52.154;9.198;2022-07-29T04:41:45;100758.81;;;18.93;64.23
11114;BME280;5610;52.154;9.198;2022-07-29T04:44:31;100750.28;;;18.98;62.71
11114;BME280;5610;52.154;9.198;2022-07-29T04:47:16;100757.22;;;19.01;63.37
11114;BME280;5610;52.154;9.198;2022-07-29T04:50:02;100750.56;;;19.05;66.61
11114;BME280;5610;52.154;9.198;2022-07-29T04:52:48;100760.88;;;19.09;66.70
11114;BME280;5610;52.154;9.198;2022-07-29T04:55:34;100768.44;;;19.06;62.62
11114;BME280;5610;52.154;9.198;2022-07-29T04:58:20;100768.59;;;19.04;61.30
11114;BME280;5610;52.154;9.198;2022-07-29T05:01:07;100764.59;;;19.08;60.77
11114;BME280;5610;52.154;9.198;2022-07-29T05:03:52;100765.59;;;19.17;60.69
11114;BME280;5610;52.154;9.198;2022-07-29T05:06:37;100765.69;;;19.25;60.19
11114;BME280;5610;52.154;9.198;2022-07-29T05:09:24;100765.66;;;19.35;59.54
11114;BME280;5610;52.154;9.198;2022-07-29T05:12:09;100763.53;;;19.38;59.68
11114;BME280;5610;52.154;9.198;2022-07-29T05:14:55;100762.63;;;19.47;59.30
11114;BME280;5610;52.154;9.198;2022-07-29T05:17:40;100756.19;;;19.58;58.86
11114;BME280;5610;52.154;9.198;2022-07-29T05:20:25;100759.91;;;19.57;59.25
11114;BME280;5610;52.154;9.198;2022-07-29T05:23:12;100764.28;;;19.68;58.97
11114;BME280;5610;52.154;9.198;2022-07-29T05:25:59;100755.41;;;19.75;58.51
11114;BME280;5610;52.154;9.198;2022-07-29T05:28:45;100758.34;;;19.82;58.60
11114;BME280;5610;52.154;9.198;2022-07-29T05:31:30;100767.47;;;19.81;58.47
11114;BME280;5610;52.154;9.198;2022-07-29T05:34:15;100770.34;;;19.97;57.87
11114;BME280;5610;52.154;9.198;2022-07-29T05:37:01;100771.00;;;20.09;57.95
11114;BME280;5610;52.154;9.198;2022-07-29T05:39:46;100764.94;;;20.15;57.08
11114;BME280;5610;52.154;9.198;2022-07-29T05:42:33;100778.72;;;20.22;56.77
11114;BME280;5610;52.154;9.198;2022-07-29T05:45:18;100765.13;;;20.32;56.55
11114;BME280;5610;52.154;9.198;2022-07-29T05:48:04;100760.88;;;20.29;56.59
11114;BME280;5610;52.154;9.198;2022-07-29T05:50:49;100762.94;;;20.45;56.92
11114;BME280;5610;52.154;9.198;2022-07-29T05:53:34;100759.47;;;20.43;57.14
11114;BME280;5610;52.154;9.198;2022-07-29T05:56:19;100764.47;;;20.47;57.15
11114;BME280;5610;52.154;9.198;2022-07-29T05:59:06;100763.03;;;20.43;56.96
11114;BME280;5610;52.154;9.198;2022-07-29T06:01:52;100757.75;;;20.51;57.15
11114;BME280;5610;52.154;9.198;2022-07-29T06:04:37;100759.38;;;20.44;56.87
11114;BME280;5610;52.154;9.198;2022-07-29T06:07:23;100759.28;;;20.54;56.88
11114;BME280;5610;52.154;9.198;2022-07-29T06:10:08;100759.44;;;20.52;56.20
11114;BME280;5610;52.154;9.198;2022-07-29T06:12:54;100753.00;;;20.53;55.89
11114;BME280;5610;52.154;9.198;2022-07-29T06:15:41;100756.63;;;20.62;55.95
11114;BME280;5610;52.154;9.198;2022-07-29T06:18:27;100761.75;;;20.65;55.79
11114;BME280;5610;52.154;9.198;2022-07-29T06:21:12;100769.72;;;20.67;56.64
11114;BME280;5610;52.154;9.198;2022-07-29T06:23:58;100765.78;;;20.61;56.24
11114;BME280;5610;52.154;9.198;2022-07-29T06:26:43;100760.28;;;20.53;56.72
11114;BME280;5610;52.154;9.198;2022-07-29T06:29:28;100758.44;;;20.53;57.16
11114;BME280;5610;52.154;9.198;2022-07-29T06:32:16;100759.81;;;20.57;58.52
11114;BME280;5610;52.154;9.198;2022-07-29T06:35:01;100754.66;;;20.46;57.11
11114;BME280;5610;52.154;9.198;2022-07-29T06:37:46;100758.50;;;20.62;57.47
11114;BME280;5610;52.154;9.198;2022-07-29T06:40:32;100756.63;;;20.62;57.51
11114;BME280;5610;52.154;9.198;2022-07-29T06:43:38;100771.88;;;20.63;57.13
11114;BME280;5610;52.154;9.198;2022-07-29T06:46:25;100770.78;;;20.74;56.98
11114;BME280;5610;52.154;9.198;2022-07-29T06:49:12;100769.84;;;20.83;57.45
11114;BME280;5610;52.154;9.198;2022-07-29T06:51:58;100767.22;;;20.99;58.02
11114;BME280;5610;52.154;9.198;2022-07-29T06:54:43;100769.34;;;21.13;56.55
11114;BME280;5610;52.154;9.198;2022-07-29T06:57:32;100776.56;;;21.23;55.92
11114;BME280;5610;52.154;9.198;2022-07-29T07:00:17;100764.63;;;21.42;57.01
11114;BME280;5610;52.154;9.198;2022-07-29T07:03:02;100769.78;;;21.53;55.71
11114;BME280;5610;52.154;9.198;2022-07-29T07:05:49;100771.25;;;21.73;55.71
11114;BME280;5610;52.154;9.198;2022-07-29T07:08:35;100775.88;;;21.97;56.83
11114;BME280;5610;52.154;9.198;2022-07-29T07:11:20;100769.38;;;22.16;54.90
11114;BME280;5610;52.154;9.198;2022-07-29T07:14:05;100768.41;;;22.41;54.20
11114;BME280;5610;52.154;9.198;2022-07-29T07:16:51;100768.22;;;22.67;54.13
11114;BME280;5610;52.154;9.198;2022-07-29T07:19:36;100765.66;;;22.82;52.95
11114;BME280;5610;52.154;9.198;2022-07-29T07:22:23;100771.13;;;23.07;51.70
11114;BME280;5610;52.154;9.198;2022-07-29T07:25:08;100775.47;;;23.24;51.83
11114;BME280;5610;52.154;9.198;2022-07-29T07:27:54;100765.09;;;23.36;52.20
11114;BME280;5610;52.154;9.198;2022-07-29T07:30:40;100773.44;;;23.34;50.49
11114;BME280;5610;52.154;9.198;2022-07-29T07:33:25;100773.81;;;23.15;49.87
11114;BME280;5610;52.154;9.198;2022-07-29T07:36:10;100775.88;;;23.05;50.57
11114;BME280;5610;52.154;9.198;2022-07-29T07:38:57;100776.03;;;22.79;50.35
11114;BME280;5610;52.154;9.198;2022-07-29T07:41:42;100761.78;;;22.77;50.84
11114;BME280;5610;52.154;9.198;2022-07-29T07:44:28;100759.56;;;22.72;52.79
11114;BME280;5610;52.154;9.198;2022-07-29T07:47:13;100762.59;;;22.69;52.71
11114;BME280;5610;52.154;9.198;2022-07-29T07:49:59;100760.78;;;22.69;52.19
11114;BME280;5610;52.154;9.198;2022-07-29T07:52:49;100759.88;;;22.69;52.32
11114;BME280;5610;52.154;9.198;2022-07-29T07:55:41;100756.34;;;22.60;51.99
11114;BME280;5610;52.154;9.198;2022-07-29T07:58:26;100751.75;;;22.53;52.10
11114;BME280;5610;52.154;9.198;2022-07-29T08:01:12;100748.00;;;22.37;52.46
11114;BME280;5610;52.154;9.198;2022-07-29T08:03:57;100746.41;;;22.02;52.78
11114;BME280;5610;52.154;9.198;2022-07-29T08:06:43;100760.88;;;22.19;52.27
11114;BME280;5610;52.154;9.198;2022-07-29T08:09:29;100764.09;;;22.14;52.36
11114;BME280;5610;52.154;9.198;2022-07-29T08:12:16;100770.56;;;22.30;51.97
11114;BME280;5610;52.154;9.198;2022-07-29T08:15:01;100773.97;;;22.32;52.37
11114;BME280;5610;52.154;9.198;2022-07-29T08:17:46;100777.34;;;22.34;52.36
11114;BME280;5610;52.154;9.198;2022-07-29T08:20:32;100770.94;;;22.43;52.20
11114;BME280;5610;52.154;9.198;2022-07-29T08:23:19;100777.03;;;22.53;50.73
11114;BME280;5610;52.154;9.198;2022-07-29T08:26:05;100772.97;;;22.65;50.91
11114;BME280;5610;52.154;9.198;2022-07-29T08:28:55;100778.28;;;22.91;51.33
11114;BME280;5610;52.154;9.198;2022-07-29T08:31:40;100774.19;;;23.12;50.03
11114;BME280;5610;52.154;9.198;2022-07-29T08:34:26;100770.63;;;23.58;49.33
11114;BME280;5610;52.154;9.198;2022-07-29T08:37:12;100770.41;;;24.07;49.08
11114;BME280;5610;52.154;9.198;2022-07-29T08:39:57;100766.97;;;24.45;48.55
11114;BME280;5610;52.154;9.198;2022-07-29T08:42:42;100764.00;;;24.92;48.85
11114;BME280;5610;52.154;9.198;2022-07-29T08:45:29;100768.31;;;25.09;46.62
11114;BME280;5610;52.154;9.198;2022-07-29T08:48:15;100774.63;;;25.39;46.36
11114;BME280;5610;52.154;9.198;2022-07-29T08:51:01;100774.72;;;25.61;46.96
11114;BME280;5610;52.154;9.198;2022-07-29T08:53:48;100773.13;;;25.66;46.64
11114;BME280;5610;52.154;9.198;2022-07-29T08:56:34;100774.63;;;25.69;47.06
11114;BME280;5610;52.154;9.198;2022-07-29T08:59:22;100777.34;;;25.69;46.33
11114;BME280;5610;52.154;9.198;2022-07-29T09:02:18;100777.19;;;25.56;46.06
11114;BME280;5610;52.154;9.198;2022-07-29T09:05:04;100780.38;;;25.44;47.62
11114;BME280;5610;52.154;9.198;2022-07-29T09:07:50;100779.44;;;25.00;46.39
11114;BME280;5610;52.154;9.198;2022-07-29T09:10:36;100774.34;;;24.36;46.85
11114;BME280;5610;52.154;9.198;2022-07-29T09:13:21;100779.63;;;24.60;47.28
11114;BME280;5610;52.154;9.198;2022-07-29T09:16:07;100774.00;;;24.62;46.86
11114;BME280;5610;52.154;9.198;2022-07-29T09:18:53;100779.19;;;24.72;47.60
11114;BME280;5610;52.154;9.198;2022-07-29T09:21:40;100769.97;;;24.73;46.86
11114;BME280;5610;52.154;9.198;2022-07-29T09:24:45;100772.84;;;24.94;47.43
11114;BME280;5610;52.154;9.198;2022-07-29T09:27:31;100779.97;;;24.80;47.31
11114;BME280;5610;52.154;9.198;2022-07-29T09:30:17;100779.97;;;24.57;47.36
11114;BME280;5610;52.154;9.198;2022-07-29T09:33:03;100777.63;;;24.77;48.12
11114;BME280;5610;52.154;9.198;2022-07-29T09:36:00;100779.25;;;25.01;46.75
11114;BME280;5610;52.154;9.198;2022-07-29T09:38:57;100775.56;;;24.94;46.53
11114;BME280;5610;52.154;9.198;2022-07-29T09:41:45;100780.09;;;24.64;46.82
11114;BME280;5610;52.154;9.198;2022-07-29T09:44:42;100774.00;;;25.00;47.23
11114;BME280;5610;52.154;9.198;2022-07-29T09:47:41;100769.63;;;25.28;47.31
11114;BME280;5610;52.154;9.198;2022-07-29T09:50:36;100766.47;;;25.25;47.59
11114;BME280;5610;52.154;9.198;2022-07-29T09:53:34;100767.50;;;25.38;46.25
11114;BME280;5610;52.154;9.198;2022-07-29T09:56:37;100767.84;;;25.65;45.61
11114;BME280;5610;52.154;9.198;2022-07-29T09:59:23;100768.03;;;25.93;46.03
11114;BME280;5610;52.154;9.198;2022-07-29T10:02:13;100759.38;;;26.25;46.84
11114;BME280;5610;52.154;9.198;2022-07-29T10:05:00;100769.41;;;26.61;45.72
11114;BME280;5610;52.154;9.198;2022-07-29T10:07:48;100766.53;;;26.91;45.52
11114;BME280;5610;52.154;9.198;2022-07-29T10:10:38;100759.44;;;27.24;44.90
11114;BME280;5610;52.154;9.198;2022-07-29T10:13:25;100758.97;;;27.49;43.56
11114;BME280;5610;52.154;9.198;2022-07-29T10:16:12;100755.16;;;27.84;43.33
11114;BME280;5610;52.154;9.198;2022-07-29T10:18:58;100752.31;;;28.12;44.01
11114;BME280;5610;52.154;9.198;2022-07-29T10:21:44;100750.47;;;28.39;42.23
11114;BME280;5610;52.154;9.198;2022-07-29T10:24:31;100755.13;;;28.52;42.17
11114;BME280;5610;52.154;9.198;2022-07-29T10:27:19;100753.03;;;28.48;41.41
11114;BME280;5610;52.154;9.198;2022-07-29T10:30:05;100753.44;;;28.38;43.45
11114;BME280;5610;52.154;9.198;2022-07-29T10:33:10;100752.72;;;28.16;42.82
11114;BME280;5610;52.154;9.198;2022-07-29T10:36:13;100749.72;;;27.91;43.57
11114;BME280;5610;52.154;9.198;2022-07-29T10:39:13;100748.13;;;27.69;45.16
11114;BME280;5610;52.154;9.198;2022-07-29T10:42:14;100742.09;;;27.45;44.32
11114;BME280;5610;52.154;9.198;2022-07-29T10:45:04;100736.25;;;27.20;45.62
11114;BME280;5610;52.154;9.198;2022-07-29T10:48:02;100748.84;;;26.87;45.47
11114;BME280;5610;52.154;9.198;2022-07-29T10:50:56;100740.47;;;26.67;45.49
11114;BME280;5610;52.154;9.198;2022-07-29T10:53:47;100740.19;;;26.62;46.24
11114;BME280;5610;52.154;9.198;2022-07-29T10:56:33;100742.56;;;26.43;45.63
11114;BME280;5610;52.154;9.198;2022-07-29T10:59:25;100747.56;;;26.04;45.05
11114;BME280;5610;52.154;9.198;2022-07-29T11:02:44;100747.38;;;26.05;46.47
11114;BME280;5610;52.154;9.198;2022-07-29T11:05:54;100738.41;;;26.11;46.70
11114;BME280;5610;52.154;9.198;2022-07-29T11:08:40;100739.66;;;26.09;46.78
11114;BME280;5610;52.154;9.198;2022-07-29T11:11:32;100749.22;;;26.19;48.16
11114;BME280;5610;52.154;9.198;2022-07-29T11:14:18;100739.97;;;26.20;47.17
11114;BME280;5610;52.154;9.198;2022-07-29T11:17:24;100752.78;;;25.84;46.41
11114;BME280;5610;52.154;9.198;2022-07-29T11:20:38;100752.03;;;26.26;47.04
11114;BME280;5610;52.154;9.198;2022-07-29T11:23:27;100756.63;;;26.04;46.55
11114;BME280;5610;52.154;9.198;2022-07-29T11:26:14;100752.78;;;26.20;47.34
11114;BME280;5610;52.154;9.198;2022-07-29T11:29:03;100748.75;;;26.52;45.76
11114;BME280;5610;52.154;9.198;2022-07-29T11:31:50;100744.41;;;26.21;45.84
11114;BME280;5610;52.154;9.198;2022-07-29T11:34:39;100746.22;;;26.14;45.68
11114;BME280;5610;52.154;9.198;2022-07-29T11:37:25;100750.97;;;26.27;46.27
11114;BME280;5610;52.154;9.198;2022-07-29T11:40:15;100757.66;;;26.39;46.12
11114;BME280;5610;52.154;9.198;2022-07-29T11:43:01;100764.09;;;26.53;47.36
11114;BME280;5610;52.154;9.198;2022-07-29T11:45:49;100752.13;;;26.54;46.03
11114;BME280;5610;52.154;9.198;2022-07-29T11:48:34;100748.66;;;26.67;45.25
11114;BME280;5610;52.154;9.198;2022-07-29T11:51:21;100752.00;;;26.90;45.37
11114;BME280;5610;52.154;9.198;2022-07-29T11:54:08;100752.66;;;27.14;45.98
11114;BME280;5610;52.154;9.198;2022-07-29T11:56:58;100748.91;;;27.21;45.84
11114;BME280;5610;52.154;9.198;2022-07-29T11:59:44;100748.34;;;27.04;45.35
11114;BME280;5610;52.154;9.198;2022-07-29T12:02:40;100745.09;;;26.94;44.83
11114;BME280;5610;52.154;9.198;2022-07-29T12:05:39;100745.88;;;27.09;47.17
11114;BME280;5610;52.154;9.198;2022-07-29T12:08:25;100737.94;;;26.93;46.09
11114;BME280;5610;52.154;9.198;2022-07-29T12:11:15;100736.81;;;27.09;46.12
11114;BME280;5610;52.154;9.198;2022-07-29T12:14:01;100729.34;;;27.24;45.46
11114;BME280;5610;52.154;9.198;2022-07-29T12:16:46;100733.69;;;27.47;45.08
11114;BME280;5610;52.154;9.198;2022-07-29T12:19:42;100727.31;;;27.74;44.69
11114;BME280;5610;52.154;9.198;2022-07-29T12:22:28;100720.91;;;28.22;43.76
11114;BME280;5610;52.154;9.198;2022-07-29T12:25:16;100725.84;;;29.06;43.39
11114;BME280;5610;52.154;9.198;2022-07-29T12:28:04;100720.00;;;30.12;41.22
11114;BME280;5610;52.154;9.198;2022-07-29T12:30:50;100708.66;;;32.41;38.26
11114;BME280;5610;52.154;9.198;2022-07-29T12:33:36;100707.88;;;34.60;35.31
11114;BME280;5610;52.154;9.198;2022-07-29T12:36:22;100716.69;;;37.66;30.96
11114;BME280;5610;52.154;9.198;2022-07-29T12:39:07;100711.13;;;41.40;27.93
11114;BME280;5610;52.154;9.198;2022-07-29T12:41:57;100715.19;;;43.54;26.18
11114;BME280;5610;52.154;9.198;2022-07-29T12:44:44;100708.06;;;43.98;25.13
11114;BME280;5610;52.154;9.198;2022-07-29T12:47:30;100695.03;;;44.60;25.06
11114;BME280;5610;52.154;9.198;2022-07-29T12:50:15;100694.69;;;45.24;24.59
11114;BME280;5610;52.154;9.198;2022-07-29T12:53:09;100695.66;;;47.19;22.77
11114;BME280;5610;52.154;9.198;2022-07-29T12:55:56;100684.84;;;47.21;22.03
11114;BME280;5610;52.154;9.198;2022-07-29T12:58:46;100678.63;;;45.16;24.00
11114;BME280;5610;52.154;9.198;2022-07-29T13:01:36;100671.13;;;43.13;24.62
11114;BME280;5610;52.154;9.198;2022-07-29T13:04:25;100676.22;;;41.38;26.19
11114;BME280;5610;52.154;9.198;2022-07-29T13:07:11;100661.00;;;39.94;27.71
11114;BME280;5610;52.154;9.198;2022-07-29T13:10:10;100663.13;;;38.62;29.23
11114;BME280;5610;52.154;9.198;2022-07-29T13:13:04;100657.81;;;37.79;30.40
11114;BME280;5610;52.154;9.198;2022-07-29T13:16:05;100651.66;;;36.67;31.62
11114;BME280;5610;52.154;9.198;2022-07-29T13:19:09;100648.94;;;35.86;32.95
11114;BME280;5610;52.154;9.198;2022-07-29T13:21:55;100656.00;;;35.06;34.60
11114;BME280;5610;52.154;9.198;2022-07-29T13:24:48;100648.91;;;34.77;34.19
11114;BME280;5610;52.154;9.198;2022-07-29T13:27:35;100644.94;;;35.99;33.18
11114;BME280;5610;52.154;9.198;2022-07-29T13:30:22;100641.66;;;38.93;30.57
11114;BME280;5610;52.154;9.198;2022-07-29T13:33:09;100635.16;;;42.28;26.50
11114;BME280;5610;52.154;9.198;2022-07-29T13:35:56;100635.81;;;44.88;24.70
11114;BME280;5610;52.154;9.198;2022-07-29T13:38:41;100634.75;;;46.88;22.09
11114;BME280;5610;52.154;9.198;2022-07-29T13:41:27;100628.69;;;47.57;20.93
11114;BME280;5610;52.154;9.198;2022-07-29T13:44:12;100626.59;;;47.25;21.96
11114;BME280;5610;52.154;9.198;2022-07-29T13:46:57;100621.38;;;44.72;23.87
11114;BME280;5610;52.154;9.198;2022-07-29T13:49:45;100624.81;;;42.88;24.78
11114;BME280;5610;52.154;9.198;2022-07-29T13:52:30;100614.94;;;41.17;26.40
11114;BME280;5610;52.154;9.198;2022-07-29T13:55:15;100611.63;;;40.33;26.93
11114;BME280;5610;52.154;9.198;2022-07-29T13:58:01;100611.50;;;39.11;28.83
11114;BME280;5610;52.154;9.198;2022-07-29T14:00:46;100620.53;;;38.67;28.68
11114;BME280;5610;52.154;9.198;2022-07-29T14:03:32;100611.72;;;41.05;25.84
11114;BME280;5610;52.154;9.198;2022-07-29T14:06:18;100614.00;;;42.82;23.83
11114;BME280;5610;52.154;9.198;2022-07-29T14:09:04;100617.84;;;42.72;24.79
11114;BME280;5610;52.154;9.198;2022-07-29T14:11:52;100619.81;;;43.54;24.45
11114;BME280;5610;52.154;9.198;2022-07-29T14:14:37;100619.13;;;44.91;22.67
11114;BME280;5610;52.154;9.198;2022-07-29T14:17:22;100617.84;;;45.81;22.68
11114;BME280;5610;52.154;9.198;2022-07-29T14:20:08;100619.50;;;46.16;21.08
11114;BME280;5610;52.154;9.198;2022-07-29T14:22:55;100614.06;;;43.95;24.21
11114;BME280;5610;52.154;9.198;2022-07-29T14:25:41;100612.84;;;42.69;25.00
11114;BME280;5610;52.154;9.198;2022-07-29T14:28:27;100611.13;;;41.32;25.01
11114;BME280;5610;52.154;9.198;2022-07-29T14:31:12;100604.03;;;40.05;26.69
11114;BME280;5610;52.154;9.198;2022-07-29T14:33:57;100608.88;;;38.39;28.76
11114;BME280;5610;52.154;9.198;2022-07-29T14:36:43;100604.22;;;36.74;30.33
11114;BME280;5610;52.154;9.198;2022-07-29T14:39:30;100596.44;;;35.47;31.64
11114;BME280;5610;52.154;9.198;2022-07-29T14:42:15;100599.53;;;34.18;32.83
11114;BME280;5610;52.154;9.198;2022-07-29T14:45:01;100593.72;;;33.57;34.86
11114;BME280;5610;52.154;9.198;2022-07-29T14:47:46;100598.09;;;33.13;35.67
11114;BME280;5610;52.154;9.198;2022-07-29T14:50:32;100597.63;;;32.81;34.94